Time;durP1;ratioP1;P1;durP2;ratioP2;P2;SDS_P1;SDS_P2;PMS_P1;PMS_P2;Temp;Humidity;BMP_temperature;BMP_pressure;BME280_temperature;BME280_humidity;BME280_pressure;Samples;Min_cycle;Max_cycle;Signal;HPM_P1;HPM_P2
2023/12/25 00:00:28;;;;;;;0.30;0.30;;;;;;;;;;5001991;28;20458;-79
2023/12/25 00:02:53;;;;;;;0.30;0.30;;;;;;;;;;4984589;28;20107;-78
2023/12/25 00:05:19;;;;;;;0.20;0.20;;;;;;;;;;4985201;28;20049;-79
2023/12/25 00:07:44;;;;;;;0.25;0.25;;;;;;;;;;5004364;28;20402;-79
2023/12/25 00:10:09;;;;;;;0.47;0.30;;;;;;;;;;5008103;28;20030;-79
2023/12/25 00:12:34;;;;;;;2.90;0.57;;;;;;;;;;4975811;28;20034;-78
2023/12/25 00:15:00;;;;;;;1.70;0.50;;;;;;;;;;5001188;28;20045;-79
2023/12/25 00:17:25;;;;;;;0.32;0.32;;;;;;;;;;4983302;28;20072;-79
2023/12/25 00:19:51;;;;;;;1.13;0.30;;;;;;;;;;5001942;28;20038;-79
2023/12/25 00:22:16;;;;;;;0.25;0.25;;;;;;;;;;4984888;28;20572;-79
2023/12/25 00:24:41;;;;;;;0.35;0.35;;;;;;;;;;5002728;28;20073;-79
2023/12/25 00:27:07;;;;;;;0.35;0.35;;;;;;;;;;4963310;28;20491;-78
2023/12/25 00:29:32;;;;;;;0.38;0.38;;;;;;;;;;5000871;28;20041;-79
2023/12/25 00:31:58;;;;;;;0.40;0.40;;;;;;;;;;4982149;28;20042;-78
2023/12/25 00:34:23;;;;;;;0.50;0.50;;;;;;;;;;4993168;28;20045;-79
2023/12/25 00:36:48;;;;;;;0.40;0.40;;;;;;;;;;4984643;28;20038;-79
2023/12/25 00:39:13;;;;;;;0.30;0.30;;;;;;;;;;5001157;28;20463;-79
2023/12/25 00:41:39;;;;;;;1.77;0.40;;;;;;;;;;5002906;28;20085;-79
2023/12/25 00:44:04;;;;;;;0.25;0.25;;;;;;;;;;4983354;28;20518;-79
2023/12/25 00:46:29;;;;;;;0.40;0.40;;;;;;;;;;4996682;28;20046;-78
2023/12/25 00:48:55;;;;;;;0.40;0.40;;;;;;;;;;4996882;28;20031;-78
2023/12/25 00:51:20;;;;;;;0.30;0.30;;;;;;;;;;4995761;28;20038;-78
2023/12/25 00:53:45;;;;;;;0.32;0.32;;;;;;;;;;4996772;28;20053;-79
2023/12/25 00:56:11;;;;;;;3.72;0.30;;;;;;;;;;4983364;28;20053;-79
2023/12/25 00:58:36;;;;;;;0.30;0.30;;;;;;;;;;5001011;28;20053;-79
2023/12/25 01:01:01;;;;;;;0.25;0.25;;;;;;;;;;4995788;28;20499;-79
2023/12/25 01:03:27;;;;;;;0.20;0.20;;;;;;;;;;4980118;28;20075;-78
2023/12/25 01:05:52;;;;;;;0.82;0.47;;;;;;;;;;4997528;28;20118;-77
2023/12/25 01:08:17;;;;;;;0.68;0.40;;;;;;;;;;4998173;28;20089;-78
2023/12/25 01:10:43;;;;;;;0.30;0.30;;;;;;;;;;5011613;28;20453;-81
2023/12/25 01:13:08;;;;;;;0.32;0.32;;;;;;;;;;4998315;28;20030;-80
2023/12/25 01:15:33;;;;;;;2.08;0.30;;;;;;;;;;4995984;28;20503;-80
2023/12/25 01:17:59;;;;;;;0.28;0.28;;;;;;;;;;4999041;28;20090;-78
2023/12/25 01:20:25;;;;;;;1.85;0.43;;;;;;;;;;4981499;28;20050;-79
2023/12/25 01:22:50;;;;;;;0.30;0.30;;;;;;;;;;4999100;28;20034;-78
2023/12/25 01:25:16;;;;;;;0.40;0.40;;;;;;;;;;5000310;28;20058;-78
2023/12/25 01:27:41;;;;;;;0.30;0.30;;;;;;;;;;4998833;28;20045;-79
2023/12/25 01:30:10;;;;;;;1.42;0.40;;;;;;;;;;4996791;28;20422;-80
2023/12/25 01:32:36;;;;;;;0.32;0.32;;;;;;;;;;4979902;28;20093;-80
2023/12/25 01:35:01;;;;;;;0.40;0.40;;;;;;;;;;4997393;28;20030;-79
2023/12/25 01:37:27;;;;;;;0.38;0.38;;;;;;;;;;4998125;28;20038;-79
2023/12/25 01:39:52;;;;;;;0.32;0.30;;;;;;;;;;5000685;28;20034;-79
2023/12/25 01:42:17;;;;;;;0.30;0.30;;;;;;;;;;5000708;28;20030;-79
2023/12/25 01:44:44;;;;;;;0.25;0.25;;;;;;;;;;4998052;28;20038;-78
2023/12/25 01:47:11;;;;;;;0.30;0.30;;;;;;;;;;4982991;28;20042;-78
2023/12/25 01:49:37;;;;;;;0.70;0.70;;;;;;;;;;5001183;28;20042;-78
2023/12/25 01:52:02;;;;;;;0.40;0.40;;;;;;;;;;5002068;28;20049;-79
2023/12/25 01:54:28;;;;;;;0.30;0.30;;;;;;;;;;5004229;28;20085;-79
2023/12/25 01:56:53;;;;;;;0.40;0.40;;;;;;;;;;4983782;28;20027;-78
2023/12/25 01:59:18;;;;;;;0.47;0.47;;;;;;;;;;4995839;28;20042;-81
2023/12/25 02:01:44;;;;;;;3.17;0.55;;;;;;;;;;4995167;28;20042;-79
2023/12/25 02:04:09;;;;;;;0.63;0.40;;;;;;;;;;4983447;28;20097;-79
2023/12/25 02:06:35;;;;;;;0.30;0.30;;;;;;;;;;4983662;28;20034;-80
2023/12/25 02:09:03;;;;;;;0.40;0.40;;;;;;;;;;5000639;28;20077;-79
2023/12/25 02:11:28;;;;;;;0.40;0.40;;;;;;;;;;5005156;28;20042;-80
2023/12/25 02:13:56;;;;;;;1.38;0.50;;;;;;;;;;4976527;28;20068;-79
2023/12/25 02:16:23;;;;;;;0.30;0.30;;;;;;;;;;4998124;28;20057;-79
2023/12/25 02:18:49;;;;;;;0.35;0.35;;;;;;;;;;5000565;28;20049;-79
2023/12/25 02:21:14;;;;;;;0.45;0.45;;;;;;;;;;5001853;28;20034;-78
2023/12/25 02:23:41;;;;;;;0.40;0.30;;;;;;;;;;5000621;28;20445;-79
2023/12/25 02:26:08;;;;;;;0.45;0.40;;;;;;;;;;5001852;28;20038;-79
2023/12/25 02:28:33;;;;;;;0.40;0.38;;;;;;;;;;5004269;28;20049;-78
2023/12/25 02:30:58;;;;;;;0.30;0.30;;;;;;;;;;5002074;28;20045;-79
2023/12/25 02:33:24;;;;;;;0.57;0.50;;;;;;;;;;4979153;28;20049;-78
2023/12/25 02:35:49;;;;;;;0.65;0.50;;;;;;;;;;4996329;28;20042;-80
2023/12/25 02:38:14;;;;;;;0.30;0.30;;;;;;;;;;4990993;28;20046;-80
2023/12/25 02:40:40;;;;;;;0.30;0.30;;;;;;;;;;5002992;28;20128;-79
2023/12/25 02:43:07;;;;;;;0.40;0.40;;;;;;;;;;4999372;28;20067;-78
2023/12/25 02:45:32;;;;;;;0.63;0.50;;;;;;;;;;4961965;28;20045;-78
2023/12/25 02:47:58;;;;;;;0.50;0.50;;;;;;;;;;4999196;28;20027;-81
2023/12/25 02:50:23;;;;;;;0.43;0.43;;;;;;;;;;4990047;28;20031;-79
2023/12/25 02:52:48;;;;;;;0.30;0.30;;;;;;;;;;5001872;28;20034;-78
2023/12/25 02:55:14;;;;;;;0.40;0.40;;;;;;;;;;4996599;28;20034;-79
2023/12/25 02:57:39;;;;;;;0.52;0.40;;;;;;;;;;5000606;28;20030;-78
2023/12/25 03:00:05;;;;;;;0.60;0.60;;;;;;;;;;5001934;28;20026;-80
2023/12/25 03:02:30;;;;;;;0.40;0.40;;;;;;;;;;5002997;28;20046;-79
2023/12/25 03:04:56;;;;;;;0.40;0.40;;;;;;;;;;4985016;28;20094;-80
2023/12/25 03:07:21;;;;;;;0.30;0.30;;;;;;;;;;4980848;28;20426;-79
2023/12/25 03:09:46;;;;;;;0.30;0.30;;;;;;;;;;4983147;28;20039;-80
2023/12/25 03:12:12;;;;;;;0.38;0.38;;;;;;;;;;4984748;28;20026;-81
2023/12/25 03:14:37;;;;;;;0.47;0.47;;;;;;;;;;5006291;28;20040;-80
2023/12/25 03:17:03;;;;;;;2.17;0.35;;;;;;;;;;4998392;28;20557;-80
2023/12/25 03:19:29;;;;;;;1.02;0.35;;;;;;;;;;4982336;28;20414;-81
2023/12/25 03:21:54;;;;;;;0.30;0.30;;;;;;;;;;4969386;28;20027;-81
2023/12/25 03:24:19;;;;;;;0.40;0.40;;;;;;;;;;4965303;28;20039;-80
2023/12/25 03:26:45;;;;;;;0.40;0.40;;;;;;;;;;4982108;28;20031;-81
2023/12/25 03:29:10;;;;;;;0.30;0.30;;;;;;;;;;4982121;28;20054;-82
2023/12/25 03:31:35;;;;;;;0.50;0.50;;;;;;;;;;4982151;28;20118;-83
2023/12/25 03:34:00;;;;;;;0.50;0.40;;;;;;;;;;4981313;28;20034;-82
2023/12/25 03:36:26;;;;;;;0.30;0.30;;;;;;;;;;4963640;28;20039;-83
2023/12/25 03:38:51;;;;;;;0.43;0.43;;;;;;;;;;4982636;28;20035;-82
2023/12/25 03:41:17;;;;;;;0.40;0.40;;;;;;;;;;4995697;28;20047;-82
2023/12/25 03:43:42;;;;;;;0.30;0.30;;;;;;;;;;4962730;28;20050;-82
2023/12/25 03:46:07;;;;;;;0.30;0.30;;;;;;;;;;4980390;28;20035;-82
2023/12/25 03:48:33;;;;;;;0.47;0.47;;;;;;;;;;4979366;28;20737;-81
2023/12/25 03:50:59;;;;;;;0.22;0.22;;;;;;;;;;4979231;28;20174;-83
2023/12/25 03:53:24;;;;;;;0.30;0.30;;;;;;;;;;4961502;28;20035;-80
2023/12/25 03:55:49;;;;;;;0.32;0.32;;;;;;;;;;4994179;28;20121;-82
2023/12/25 03:58:15;;;;;;;0.30;0.30;;;;;;;;;;4979175;28;20053;-81
2023/12/25 04:00:40;;;;;;;0.40;0.32;;;;;;;;;;4979527;28;20115;-83
2023/12/25 04:03:05;;;;;;;0.40;0.40;;;;;;;;;;4978984;28;20133;-83
2023/12/25 04:05:31;;;;;;;0.40;0.40;;;;;;;;;;4979330;28;20041;-82
2023/12/25 04:07:56;;;;;;;0.30;0.30;;;;;;;;;;4977602;28;20046;-81
2023/12/25 04:10:21;;;;;;;0.40;0.40;;;;;;;;;;4960388;28;20407;-81
2023/12/25 04:12:47;;;;;;;0.40;0.40;;;;;;;;;;4944691;28;20031;-80
2023/12/25 04:15:12;;;;;;;0.47;0.47;;;;;;;;;;4992259;28;20035;-80
2023/12/25 04:17:37;;;;;;;0.40;0.40;;;;;;;;;;4978397;28;20030;-79
2023/12/25 04:20:03;;;;;;;0.60;0.60;;;;;;;;;;4978189;28;20103;-81
2023/12/25 04:22:28;;;;;;;0.30;0.30;;;;;;;;;;4993384;28;20034;-80
2023/12/25 04:24:54;;;;;;;0.40;0.40;;;;;;;;;;4977394;28;20031;-82
2023/12/25 04:27:19;;;;;;;0.32;0.32;;;;;;;;;;4977892;28;20107;-79
2023/12/25 04:29:45;;;;;;;0.40;0.40;;;;;;;;;;4978504;28;20041;-82
2023/12/25 04:32:10;;;;;;;2.03;0.47;;;;;;;;;;4977393;28;20031;-83
2023/12/25 04:34:36;;;;;;;0.32;0.32;;;;;;;;;;4977118;28;20053;-80
2023/12/25 04:37:01;;;;;;;0.68;0.65;;;;;;;;;;4978574;28;20522;-81
2023/12/25 04:39:27;;;;;;;0.50;0.50;;;;;;;;;;4996538;28;20105;-81
2023/12/25 04:41:52;;;;;;;0.40;0.40;;;;;;;;;;4997565;28;20333;-81
2023/12/25 04:44:17;;;;;;;0.80;0.55;;;;;;;;;;4979447;28;20045;-81
2023/12/25 04:46:42;;;;;;;0.40;0.40;;;;;;;;;;4996131;28;20117;-80
2023/12/25 04:49:08;;;;;;;0.40;0.40;;;;;;;;;;4996929;28;20034;-81
2023/12/25 04:51:33;;;;;;;1.17;0.40;;;;;;;;;;4996607;28;20062;-81
2023/12/25 04:53:58;;;;;;;0.40;0.40;;;;;;;;;;4979640;28;20037;-81
2023/12/25 04:56:24;;;;;;;0.30;0.30;;;;;;;;;;4996374;28;20034;-83
2023/12/25 04:58:49;;;;;;;0.40;0.40;;;;;;;;;;4978751;28;20405;-82
2023/12/25 05:01:15;;;;;;;0.38;0.38;;;;;;;;;;4996195;28;20057;-82
2023/12/25 05:03:40;;;;;;;0.38;0.38;;;;;;;;;;4979080;28;20133;-82
2023/12/25 05:06:05;;;;;;;0.40;0.40;;;;;;;;;;4978555;28;20037;-80
2023/12/25 05:08:31;;;;;;;0.40;0.40;;;;;;;;;;4979464;28;20379;-80
2023/12/25 05:10:56;;;;;;;0.75;0.30;;;;;;;;;;4978683;28;20046;-83
2023/12/25 05:13:21;;;;;;;0.40;0.40;;;;;;;;;;4997094;28;20049;-82
2023/12/25 05:15:47;;;;;;;0.50;0.50;;;;;;;;;;4996523;28;20045;-83
2023/12/25 05:18:12;;;;;;;0.30;0.30;;;;;;;;;;4978104;28;20038;-82
2023/12/25 05:20:37;;;;;;;0.47;0.40;;;;;;;;;;4978932;28;20039;-80
2023/12/25 05:23:03;;;;;;;0.40;0.40;;;;;;;;;;4997566;28;20039;-82
2023/12/25 05:25:28;;;;;;;0.40;0.40;;;;;;;;;;4998334;28;20142;-82
2023/12/25 05:27:54;;;;;;;0.30;0.30;;;;;;;;;;4997992;28;20029;-80
2023/12/25 05:30:19;;;;;;;0.20;0.20;;;;;;;;;;5016145;28;20030;-82
2023/12/25 05:32:44;;;;;;;0.55;0.55;;;;;;;;;;5012788;28;20088;-81
2023/12/25 05:35:10;;;;;;;0.50;0.50;;;;;;;;;;4996317;28;20500;-80
2023/12/25 05:37:35;;;;;;;0.57;0.57;;;;;;;;;;4995370;28;20038;-81
2023/12/25 05:40:03;;;;;;;0.40;0.40;;;;;;;;;;4996027;28;20121;-82
2023/12/25 05:42:29;;;;;;;0.95;0.73;;;;;;;;;;4995486;28;20038;-81
2023/12/25 05:44:54;;;;;;;0.40;0.40;;;;;;;;;;4996227;28;20154;-80
2023/12/25 05:47:20;;;;;;;0.52;0.52;;;;;;;;;;4996109;28;20122;-83
2023/12/25 05:49:45;;;;;;;0.93;0.47;;;;;;;;;;4996625;28;20062;-81
2023/12/25 05:52:11;;;;;;;0.40;0.40;;;;;;;;;;4996007;28;20125;-83
2023/12/25 05:54:36;;;;;;;0.28;0.28;;;;;;;;;;4995723;28;20037;-82
2023/12/25 05:57:02;;;;;;;0.40;0.40;;;;;;;;;;4996638;28;20057;-81
2023/12/25 05:59:27;;;;;;;0.40;0.40;;;;;;;;;;4978326;28;20042;-80
2023/12/25 06:01:52;;;;;;;0.40;0.40;;;;;;;;;;4978370;28;20053;-80
2023/12/25 06:04:18;;;;;;;0.30;0.30;;;;;;;;;;4995176;28;20039;-79
2023/12/25 06:06:43;;;;;;;0.40;0.40;;;;;;;;;;4977316;28;20045;-82
2023/12/25 06:09:12;;;;;;;0.55;0.50;;;;;;;;;;4995333;28;20152;-80
2023/12/25 06:11:38;;;;;;;0.75;0.60;;;;;;;;;;4977445;28;20093;-79
2023/12/25 06:14:03;;;;;;;0.40;0.40;;;;;;;;;;4995294;28;20041;-81
2023/12/25 06:16:29;;;;;;;0.40;0.40;;;;;;;;;;4995353;28;20506;-81
2023/12/25 06:18:54;;;;;;;0.40;0.40;;;;;;;;;;4961774;28;20034;-80
2023/12/25 06:21:19;;;;;;;0.88;0.50;;;;;;;;;;4961298;28;20126;-81
2023/12/25 06:23:45;;;;;;;0.40;0.40;;;;;;;;;;4995465;28;20053;-79
2023/12/25 06:26:10;;;;;;;0.30;0.30;;;;;;;;;;4995332;28;20118;-80
2023/12/25 06:28:35;;;;;;;0.43;0.43;;;;;;;;;;4994417;28;20057;-83
2023/12/25 06:31:01;;;;;;;0.40;0.40;;;;;;;;;;4993928;28;20053;-79
2023/12/25 06:33:26;;;;;;;0.30;0.30;;;;;;;;;;4994415;28;20041;-82
2023/12/25 06:35:51;;;;;;;0.30;0.30;;;;;;;;;;4995711;28;20442;-83
2023/12/25 06:38:16;;;;;;;0.30;0.30;;;;;;;;;;4977666;28;20078;-80
2023/12/25 06:40:42;;;;;;;0.50;0.50;;;;;;;;;;4977720;28;20666;-81
2023/12/25 06:43:07;;;;;;;0.45;0.45;;;;;;;;;;4993151;28;20042;-80
2023/12/25 06:45:34;;;;;;;0.40;0.40;;;;;;;;;;5009799;28;20406;-81
2023/12/25 06:47:59;;;;;;;6.50;0.60;;;;;;;;;;4978072;28;20034;-80
2023/12/25 06:50:25;;;;;;;0.40;0.40;;;;;;;;;;4994834;28;20104;-81
2023/12/25 06:52:50;;;;;;;0.40;0.40;;;;;;;;;;4977422;28;20052;-81
2023/12/25 06:55:15;;;;;;;0.40;0.40;;;;;;;;;;4994094;28;20141;-80
2023/12/25 06:57:41;;;;;;;0.55;0.55;;;;;;;;;;4979275;28;20112;-81
2023/12/25 07:00:06;;;;;;;0.50;0.50;;;;;;;;;;4998269;28;20057;-81
2023/12/25 07:02:32;;;;;;;0.43;0.43;;;;;;;;;;4977473;28;20498;-81
2023/12/25 07:04:57;;;;;;;0.40;0.40;;;;;;;;;;4994251;28;20057;-82
2023/12/25 07:07:23;;;;;;;0.30;0.30;;;;;;;;;;4993377;28;20074;-82
2023/12/25 07:09:48;;;;;;;0.30;0.30;;;;;;;;;;4977281;28;20034;-79
2023/12/25 07:12:13;;;;;;;2.05;0.57;;;;;;;;;;4993659;28;20049;-81
2023/12/25 07:14:39;;;;;;;0.40;0.40;;;;;;;;;;4995870;28;20050;-83
2023/12/25 07:17:07;;;;;;;0.40;0.40;;;;;;;;;;4994284;28;20046;-82
2023/12/25 07:19:33;;;;;;;0.52;0.52;;;;;;;;;;4994621;28;20133;-79
2023/12/25 07:21:58;;;;;;;1.50;0.43;;;;;;;;;;4994764;28;20184;-80
2023/12/25 07:24:24;;;;;;;0.73;0.65;;;;;;;;;;4976993;28;20636;-82
2023/12/25 07:26:49;;;;;;;0.52;0.52;;;;;;;;;;4995817;28;20077;-81
2023/12/25 07:29:16;;;;;;;0.40;0.40;;;;;;;;;;4961117;28;20392;-82
2023/12/25 07:31:42;;;;;;;0.50;0.50;;;;;;;;;;4995065;28;20042;-79
2023/12/25 07:34:07;;;;;;;0.50;0.50;;;;;;;;;;4994552;28;20073;-80
2023/12/25 07:36:32;;;;;;;0.40;0.40;;;;;;;;;;4995375;28;20037;-82
2023/12/25 07:38:58;;;;;;;0.50;0.50;;;;;;;;;;4977592;28;20042;-82
2023/12/25 07:41:24;;;;;;;0.43;0.43;;;;;;;;;;4995161;28;20092;-81
2023/12/25 07:43:49;;;;;;;0.40;0.40;;;;;;;;;;4997168;28;20053;-80
2023/12/25 07:46:15;;;;;;;0.40;0.40;;;;;;;;;;4980946;28;20057;-82
2023/12/25 07:48:40;;;;;;;1.33;0.60;;;;;;;;;;4997317;28;20033;-81
2023/12/25 07:51:06;;;;;;;0.40;0.40;;;;;;;;;;4996192;28;20038;-80
2023/12/25 07:53:31;;;;;;;0.50;0.50;;;;;;;;;;4997825;28;20085;-82
2023/12/25 07:55:57;;;;;;;0.45;0.45;;;;;;;;;;4997356;28;20042;-81
2023/12/25 07:58:22;;;;;;;0.50;0.50;;;;;;;;;;4996025;28;20031;-81
2023/12/25 08:00:48;;;;;;;0.50;0.50;;;;;;;;;;5003206;28;20109;-82
2023/12/25 08:03:13;;;;;;;0.63;0.63;;;;;;;;;;5016826;28;20089;-83
2023/12/25 08:05:39;;;;;;;0.43;0.43;;;;;;;;;;5017654;28;20121;-82
2023/12/25 08:08:08;;;;;;;0.82;0.80;;;;;;;;;;5016834;28;20097;-81
2023/12/25 08:10:33;;;;;;;0.52;0.40;;;;;;;;;;5016880;28;20092;-82
2023/12/25 08:12:59;;;;;;;0.50;0.50;;;;;;;;;;5017084;28;20457;-82
2023/12/25 08:15:28;;;;;;;0.50;0.50;;;;;;;;;;4999099;28;20054;-82
2023/12/25 08:17:53;;;;;;;0.60;0.60;;;;;;;;;;5011626;28;20034;-81
2023/12/25 08:20:19;;;;;;;0.40;0.40;;;;;;;;;;4997278;28;20026;-81
2023/12/25 08:22:44;;;;;;;0.45;0.45;;;;;;;;;;4997114;28;20038;-81
2023/12/25 08:25:10;;;;;;;0.57;0.57;;;;;;;;;;4962957;28;20498;-81
2023/12/25 08:27:35;;;;;;;0.50;0.50;;;;;;;;;;4997241;28;20100;-82
2023/12/25 08:30:03;;;;;;;0.65;0.50;;;;;;;;;;4997633;28;20249;-81
2023/12/25 08:32:28;;;;;;;0.50;0.50;;;;;;;;;;4996468;28;20046;-79
2023/12/25 08:34:53;;;;;;;17.77;1.10;;;;;;;;;;4995856;28;20104;-78
2023/12/25 08:37:19;;;;;;;0.40;0.40;;;;;;;;;;4996168;28;20552;-82
2023/12/25 08:39:44;;;;;;;0.43;0.43;;;;;;;;;;4995315;28;20042;-80
2023/12/25 08:42:09;;;;;;;0.50;0.50;;;;;;;;;;4995756;28;20032;-80
2023/12/25 08:44:34;;;;;;;0.40;0.40;;;;;;;;;;4996111;28;20034;-80
2023/12/25 08:47:00;;;;;;;0.63;0.50;;;;;;;;;;4995795;28;20038;-81
2023/12/25 08:49:25;;;;;;;0.50;0.50;;;;;;;;;;4995142;28;20406;-82
2023/12/25 08:51:51;;;;;;;0.47;0.47;;;;;;;;;;4996035;28;20124;-79
2023/12/25 08:54:17;;;;;;;0.50;0.50;;;;;;;;;;4996323;28;20038;-81
2023/12/25 08:56:42;;;;;;;0.65;0.60;;;;;;;;;;4996502;28;20390;-82
2023/12/25 08:59:09;;;;;;;0.43;0.43;;;;;;;;;;4996444;28;20034;-80
2023/12/25 09:01:34;;;;;;;0.40;0.40;;;;;;;;;;4996402;28;20045;-80
2023/12/25 09:04:00;;;;;;;0.40;0.40;;;;;;;;;;4996378;28;20062;-80
2023/12/25 09:06:25;;;;;;;0.40;0.40;;;;;;;;;;4995551;28;20121;-80
2023/12/25 09:08:51;;;;;;;0.47;0.47;;;;;;;;;;4996543;28;20034;-80
2023/12/25 09:11:17;;;;;;;0.60;0.60;;;;;;;;;;4996824;28;20034;-80
2023/12/25 09:13:43;;;;;;;0.50;0.50;;;;;;;;;;4995528;28;20520;-80
2023/12/25 09:16:08;;;;;;;0.50;0.50;;;;;;;;;;4996153;28;20030;-81
2023/12/25 09:18:34;;;;;;;0.40;0.40;;;;;;;;;;4994877;28;20030;-80
2023/12/25 09:20:59;;;;;;;0.30;0.30;;;;;;;;;;4979236;28;20031;-80
2023/12/25 09:23:25;;;;;;;0.32;0.32;;;;;;;;;;4996368;28;20035;-81
2023/12/25 09:25:50;;;;;;;0.55;0.55;;;;;;;;;;4996223;28;20050;-80
2023/12/25 09:28:16;;;;;;;0.57;0.57;;;;;;;;;;4996598;28;20061;-81
2023/12/25 09:30:41;;;;;;;0.63;0.60;;;;;;;;;;4995700;28;20158;-80
2023/12/25 09:33:06;;;;;;;0.50;0.50;;;;;;;;;;4996529;28;20085;-80
2023/12/25 09:35:32;;;;;;;1.25;0.73;;;;;;;;;;4996171;28;20026;-80
2023/12/25 09:37:57;;;;;;;0.40;0.40;;;;;;;;;;5011565;28;20074;-81
2023/12/25 09:40:22;;;;;;;1.40;0.50;;;;;;;;;;4978829;28;20077;-82
2023/12/25 09:42:49;;;;;;;0.50;0.50;;;;;;;;;;4996150;28;20066;-82
2023/12/25 09:45:16;;;;;;;0.50;0.50;;;;;;;;;;4996055;28;20030;-82
2023/12/25 09:47:42;;;;;;;0.95;0.50;;;;;;;;;;4996583;28;20030;-82
2023/12/25 09:50:08;;;;;;;1.25;0.60;;;;;;;;;;4997451;28;20057;-81
2023/12/25 09:52:33;;;;;;;0.50;0.50;;;;;;;;;;4997264;28;20050;-80
2023/12/25 09:54:59;;;;;;;0.57;0.57;;;;;;;;;;4996395;28;20030;-82
2023/12/25 09:57:26;;;;;;;0.40;0.40;;;;;;;;;;4996918;28;20390;-81
2023/12/25 09:59:52;;;;;;;0.50;0.50;;;;;;;;;;4980217;28;20154;-81
2023/12/25 10:02:21;;;;;;;0.60;0.60;;;;;;;;;;4996848;28;20138;-81
2023/12/25 10:04:48;;;;;;;0.82;0.60;;;;;;;;;;4996084;28;20038;-80
2023/12/25 10:07:13;;;;;;;0.57;0.57;;;;;;;;;;4997080;28;20133;-80
2023/12/25 10:09:38;;;;;;;0.57;0.57;;;;;;;;;;5046569;23;20069;-81
2023/12/25 10:12:05;;;;;;;0.60;0.60;;;;;;;;;;5004426;28;20108;-80
2023/12/25 10:14:30;;;;;;;0.50;0.50;;;;;;;;;;4992442;28;20044;-79
2023/12/25 10:16:57;;;;;;;0.50;0.50;;;;;;;;;;4994687;28;20501;-79
2023/12/25 10:19:23;;;;;;;7.22;0.50;;;;;;;;;;4975877;28;20641;-81
2023/12/25 10:21:50;;;;;;;0.50;0.50;;;;;;;;;;4995264;28;20129;-80
2023/12/25 10:24:16;;;;;;;0.95;0.63;;;;;;;;;;4988700;28;20101;-80
2023/12/25 10:26:45;;;;;;;0.88;0.88;;;;;;;;;;5013284;28;21234;-80
2023/12/25 10:29:11;;;;;;;0.47;0.47;;;;;;;;;;4982762;28;20506;-80
2023/12/25 10:31:47;;;;;;;0.40;0.40;;;;;;;;;;4989778;28;20037;-80
2023/12/25 10:34:18;;;;;;;0.57;0.57;;;;;;;;;;5010475;28;20037;-80
2023/12/25 10:36:43;;;;;;;0.60;0.60;;;;;;;;;;5012079;28;20052;-79
2023/12/25 10:39:10;;;;;;;0.60;0.60;;;;;;;;;;4990863;28;20545;-80
2023/12/25 10:41:36;;;;;;;0.47;0.47;;;;;;;;;;5013901;28;20497;-80
2023/12/25 10:44:03;;;;;;;0.88;0.77;;;;;;;;;;5005238;28;20047;-80
2023/12/25 10:46:41;;;;;;;0.90;0.90;;;;;;;;;;4984766;28;20038;-79
2023/12/25 10:49:08;;;;;;;0.40;0.40;;;;;;;;;;5003072;28;20415;-80
2023/12/25 10:51:43;;;;;;;0.70;0.70;;;;;;;;;;4988036;28;20048;-80
2023/12/25 10:54:10;;;;;;;0.40;0.40;;;;;;;;;;5010687;28;20536;-80
2023/12/25 10:56:39;;;;;;;1.05;0.70;;;;;;;;;;5004104;28;20050;-80
2023/12/25 10:59:43;;;;;;;0.50;0.50;;;;;;;;;;5009212;28;20045;-81
2023/12/25 11:02:18;;;;;;;0.55;0.55;;;;;;;;;;4913943;29;20032;-81
2023/12/25 11:04:46;;;;;;;0.60;0.60;;;;;;;;;;4924334;28;20501;-80
2023/12/25 11:07:13;;;;;;;0.63;0.63;;;;;;;;;;4952532;28;20038;-80
2023/12/25 11:09:40;;;;;;;0.60;0.60;;;;;;;;;;4980679;28;20034;-80
2023/12/25 11:12:06;;;;;;;0.95;0.60;;;;;;;;;;4973979;28;20033;-80
2023/12/25 11:14:31;;;;;;;0.73;0.73;;;;;;;;;;5003720;28;20418;-79
2023/12/25 11:16:57;;;;;;;0.50;0.50;;;;;;;;;;5001833;28;20040;-78
2023/12/25 11:19:23;;;;;;;1.25;0.90;;;;;;;;;;5005949;28;20509;-80
2023/12/25 11:21:48;;;;;;;0.55;0.50;;;;;;;;;;4997764;28;20084;-82
2023/12/25 11:24:14;;;;;;;0.45;0.45;;;;;;;;;;5005495;28;20022;-82
2023/12/25 11:26:42;;;;;;;0.60;0.60;;;;;;;;;;5000817;28;20124;-80
2023/12/25 11:29:10;;;;;;;0.60;0.60;;;;;;;;;;5011420;28;20030;-80
2023/12/25 11:31:44;;;;;;;0.50;0.50;;;;;;;;;;4995640;28;20041;-80
2023/12/25 11:34:23;;;;;;;0.75;0.70;;;;;;;;;;5000051;28;20044;-79
2023/12/25 11:36:54;;;;;;;0.40;0.40;;;;;;;;;;4979626;28;20122;-82
2023/12/25 11:39:19;;;;;;;0.50;0.50;;;;;;;;;;5009802;28;20438;-80
2023/12/25 11:41:45;;;;;;;0.65;0.60;;;;;;;;;;4985083;28;20045;-80
2023/12/25 11:44:16;;;;;;;0.60;0.60;;;;;;;;;;5001412;28;20072;-81
2023/12/25 11:46:46;;;;;;;0.40;0.40;;;;;;;;;;4976876;28;20102;-81
2023/12/25 11:49:14;;;;;;;1.20;0.65;;;;;;;;;;4976389;28;20030;-80
2023/12/25 11:51:46;;;;;;;1.15;0.80;;;;;;;;;;4990799;28;20420;-81
2023/12/25 11:54:11;;;;;;;0.60;0.60;;;;;;;;;;5015190;28;20101;-81
2023/12/25 11:56:38;;;;;;;0.77;0.60;;;;;;;;;;4981807;28;20062;-81
2023/12/25 11:59:04;;;;;;;0.98;0.68;;;;;;;;;;4984373;28;20098;-80
2023/12/25 12:01:29;;;;;;;0.60;0.60;;;;;;;;;;5009662;28;20147;-80
2023/12/25 12:03:55;;;;;;;0.50;0.50;;;;;;;;;;5009035;28;20034;-80
2023/12/25 12:06:20;;;;;;;0.50;0.50;;;;;;;;;;4994317;28;20038;-81
2023/12/25 12:08:46;;;;;;;0.65;0.60;;;;;;;;;;4993924;28;20540;-81
2023/12/25 12:11:14;;;;;;;1.20;0.90;;;;;;;;;;5014770;28;20036;-79
2023/12/25 12:13:40;;;;;;;0.30;0.30;;;;;;;;;;5000142;28;20121;-81
2023/12/25 12:16:06;;;;;;;0.70;0.70;;;;;;;;;;4994897;28;20038;-81
2023/12/25 12:18:32;;;;;;;0.65;0.65;;;;;;;;;;4999120;28;20042;-81
2023/12/25 12:20:58;;;;;;;0.77;0.60;;;;;;;;;;4989383;28;20034;-81
2023/12/25 12:23:24;;;;;;;0.60;0.60;;;;;;;;;;4997810;28;20093;-81
2023/12/25 12:25:50;;;;;;;0.65;0.65;;;;;;;;;;5009974;28;20053;-81
2023/12/25 12:28:16;;;;;;;0.70;0.70;;;;;;;;;;5016096;28;20042;-81
2023/12/25 12:30:41;;;;;;;3.58;0.68;;;;;;;;;;4991234;28;20038;-81
2023/12/25 12:33:08;;;;;;;2.10;1.00;;;;;;;;;;4991801;28;20319;-81
2023/12/25 12:35:34;;;;;;;0.95;0.70;;;;;;;;;;4992936;28;20133;-81
2023/12/25 12:38:00;;;;;;;2.10;0.60;;;;;;;;;;5015397;28;20034;-81
2023/12/25 12:40:26;;;;;;;0.70;0.70;;;;;;;;;;4985668;28;20054;-80
2023/12/25 12:42:53;;;;;;;0.80;0.80;;;;;;;;;;5015064;28;20034;-81
2023/12/25 12:45:19;;;;;;;0.60;0.60;;;;;;;;;;4984410;28;20506;-81
2023/12/25 12:47:45;;;;;;;0.73;0.60;;;;;;;;;;5007556;28;20049;-80
2023/12/25 12:50:11;;;;;;;0.98;0.73;;;;;;;;;;4981223;28;20034;-81
2023/12/25 12:52:37;;;;;;;0.80;0.80;;;;;;;;;;4979725;28;20107;-81
2023/12/25 12:55:03;;;;;;;3.35;0.85;;;;;;;;;;4991177;28;20049;-81
2023/12/25 12:57:28;;;;;;;0.77;0.77;;;;;;;;;;5011520;28;20038;-80
2023/12/25 12:59:54;;;;;;;0.70;0.70;;;;;;;;;;4986514;28;20056;-81
2023/12/25 13:02:19;;;;;;;0.70;0.70;;;;;;;;;;4985495;28;20076;-79
2023/12/25 13:04:44;;;;;;;0.60;0.60;;;;;;;;;;4994470;28;20513;-80
2023/12/25 13:07:10;;;;;;;0.80;0.80;;;;;;;;;;4993694;28;20041;-81
2023/12/25 13:09:35;;;;;;;0.80;0.80;;;;;;;;;;4985348;28;20088;-81
2023/12/25 13:12:01;;;;;;;0.60;0.60;;;;;;;;;;5014888;28;20104;-80
2023/12/25 13:14:26;;;;;;;0.60;0.60;;;;;;;;;;4991768;28;20030;-81
2023/12/25 13:16:51;;;;;;;0.80;0.80;;;;;;;;;;5007145;28;20042;-81
2023/12/25 13:19:17;;;;;;;0.63;0.63;;;;;;;;;;4995032;28;20076;-81
2023/12/25 13:21:42;;;;;;;1.13;0.80;;;;;;;;;;4999083;28;20042;-82
2023/12/25 13:24:08;;;;;;;1.67;0.68;;;;;;;;;;4986509;28;20030;-81
2023/12/25 13:26:33;;;;;;;0.93;0.93;;;;;;;;;;5003244;28;20046;-81
2023/12/25 13:28:58;;;;;;;0.80;0.80;;;;;;;;;;5007223;28;20105;-81
2023/12/25 13:31:24;;;;;;;0.70;0.70;;;;;;;;;;4990440;28;20054;-81
2023/12/25 13:33:49;;;;;;;0.85;0.85;;;;;;;;;;4978005;28;20110;-81
2023/12/25 13:36:16;;;;;;;0.75;0.75;;;;;;;;;;4979765;28;20038;-82
2023/12/25 13:38:47;;;;;;;1.75;0.77;;;;;;;;;;4983303;28;20040;-81
2023/12/25 13:41:13;;;;;;;0.70;0.70;;;;;;;;;;5009998;28;20038;-82
2023/12/25 13:43:38;;;;;;;0.90;0.90;;;;;;;;;;4993431;28;20050;-82
2023/12/25 13:46:04;;;;;;;0.88;0.88;;;;;;;;;;4984371;28;20454;-80
2023/12/25 13:48:30;;;;;;;0.88;0.88;;;;;;;;;;4990043;28;20034;-81
2023/12/25 13:50:57;;;;;;;0.80;0.80;;;;;;;;;;4992827;28;20068;-82
2023/12/25 13:53:23;;;;;;;0.88;0.88;;;;;;;;;;5000829;28;20034;-82
2023/12/25 13:55:49;;;;;;;1.15;1.00;;;;;;;;;;4989784;28;20485;-81
2023/12/25 13:58:15;;;;;;;0.70;0.70;;;;;;;;;;4995129;28;20034;-82
2023/12/25 14:00:41;;;;;;;0.70;0.70;;;;;;;;;;4986585;28;20060;-82
2023/12/25 14:03:06;;;;;;;1.90;1.10;;;;;;;;;;4984620;28;20030;-82
2023/12/25 14:05:31;;;;;;;1.00;1.00;;;;;;;;;;5003345;28;20121;-81
2023/12/25 14:07:57;;;;;;;0.90;0.90;;;;;;;;;;5016194;28;20453;-82
2023/12/25 14:10:23;;;;;;;0.73;0.73;;;;;;;;;;5006979;28;20030;-82
2023/12/25 14:12:48;;;;;;;0.80;0.80;;;;;;;;;;4999648;28;20026;-82
2023/12/25 14:15:14;;;;;;;0.90;0.90;;;;;;;;;;4985056;28;20080;-82
2023/12/25 14:17:40;;;;;;;1.33;0.90;;;;;;;;;;4996499;28;20148;-82
2023/12/25 14:20:08;;;;;;;0.73;0.73;;;;;;;;;;4997063;28;20033;-82
2023/12/25 14:22:33;;;;;;;1.65;0.88;;;;;;;;;;4976926;28;20037;-82
2023/12/25 14:24:59;;;;;;;0.70;0.70;;;;;;;;;;5010542;28;20501;-82
2023/12/25 14:27:24;;;;;;;0.98;0.88;;;;;;;;;;4991829;28;20564;-82
2023/12/25 14:29:49;;;;;;;0.90;0.90;;;;;;;;;;4980031;28;20397;-82
2023/12/25 14:32:15;;;;;;;0.90;0.90;;;;;;;;;;5009022;28;20034;-82
2023/12/25 14:34:43;;;;;;;0.80;0.80;;;;;;;;;;4990532;28;20498;-82